sensor_id;sensor_type;location;lat;lon;timestamp;pressure;altitude;pressure_sealevel;temperature
15333;BMP180;7766;51.534;6.722;2023-05-09T00:00:42;101157.03;;;19.13
15333;BMP180;7766;51.534;6.722;2023-05-09T00:01:43;101159.81;;;19.18
15333;BMP180;7766;51.534;6.722;2023-05-09T00:02:45;101156.72;;;19.21
15333;BMP180;7766;51.534;6.722;2023-05-09T00:03:46;101153.59;;;19.24
15333;BMP180;7766;51.534;6.722;2023-05-09T00:04:46;101155.81;;;19.27
15333;BMP180;7766;51.534;6.722;2023-05-09T00:05:47;101152.09;;;19.28
15333;BMP180;7766;51.534;6.722;2023-05-09T00:06:49;101158.81;;;19.30
15333;BMP180;7766;51.534;6.722;2023-05-09T00:07:50;101151.19;;;19.34
15333;BMP180;7766;51.534;6.722;2023-05-09T00:08:51;101151.19;;;19.34
15333;BMP180;7766;51.534;6.722;2023-05-09T00:09:52;101147.72;;;19.33
15333;BMP180;7766;51.534;6.722;2023-05-09T00:10:53;101150.75;;;19.37
15333;BMP180;7766;51.534;6.722;2023-05-09T00:11:54;101149.47;;;19.39
15333;BMP180;7766;51.534;6.722;2023-05-09T00:12:55;101139.84;;;19.38
15333;BMP180;7766;51.534;6.722;2023-05-09T00:13:56;101147.63;;;19.39
15333;BMP180;7766;51.534;6.722;2023-05-09T00:14:58;101138.59;;;19.40
15333;BMP180;7766;51.534;6.722;2023-05-09T00:15:59;101134.88;;;19.41
15333;BMP180;7766;51.534;6.722;2023-05-09T00:17:00;101141.03;;;19.42
15333;BMP180;7766;51.534;6.722;2023-05-09T00:18:01;101130.38;;;19.42
15333;BMP180;7766;51.534;6.722;2023-05-09T00:19:02;101147.75;;;19.44
15333;BMP180;7766;51.534;6.722;2023-05-09T00:20:05;101138.94;;;19.44
15333;BMP180;7766;51.534;6.722;2023-05-09T00:21:09;101138.59;;;19.40
15333;BMP180;7766;51.534;6.722;2023-05-09T00:22:10;101140.44;;;19.40
15333;BMP180;7766;51.534;6.722;2023-05-09T00:23:12;101142.50;;;19.38
15333;BMP180;7766;51.534;6.722;2023-05-09T00:24:13;101141.09;;;19.36
15333;BMP180;7766;51.534;6.722;2023-05-09T00:25:14;101142.50;;;19.27
15333;BMP180;7766;51.534;6.722;2023-05-09T00:26:15;101137.97;;;19.27
15333;BMP180;7766;51.534;6.722;2023-05-09T00:27:17;101139.59;;;19.28
15333;BMP180;7766;51.534;6.722;2023-05-09T00:28:18;101143.38;;;19.21
15333;BMP180;7766;51.534;6.722;2023-05-09T00:29:19;101125.31;;;19.23
15333;BMP180;7766;51.534;6.722;2023-05-09T00:30:20;101135.97;;;19.23
15333;BMP180;7766;51.534;6.722;2023-05-09T00:31:21;101140.66;;;19.10
15333;BMP180;7766;51.534;6.722;2023-05-09T00:32:22;101130.59;;;19.12
15333;BMP180;7766;51.534;6.722;2023-05-09T00:33:24;101131.97;;;19.14
15333;BMP180;7766;51.534;6.722;2023-05-09T00:34:26;101131.97;;;19.14
15333;BMP180;7766;51.534;6.722;2023-05-09T00:35:27;101129.63;;;19.07
15333;BMP180;7766;51.534;6.722;2023-05-09T00:36:28;101136.78;;;18.95
15333;BMP180;7766;51.534;6.722;2023-05-09T00:37:30;101122.56;;;19.01
15333;BMP180;7766;51.534;6.722;2023-05-09T00:38:31;101120.25;;;19.04
15333;BMP180;7766;51.534;6.722;2023-05-09T00:39:32;101123.72;;;19.05
15333;BMP180;7766;51.534;6.722;2023-05-09T00:40:33;101124.31;;;19.07
15333;BMP180;7766;51.534;6.722;2023-05-09T00:41:34;101122.25;;;19.08
15333;BMP180;7766;51.534;6.722;2023-05-09T00:42:35;101123.66;;;19.11
15333;BMP180;7766;51.534;6.722;2023-05-09T00:43:37;101120.16;;;19.10
15333;BMP180;7766;51.534;6.722;2023-05-09T00:44:38;101122.25;;;19.08
15333;BMP180;7766;51.534;6.722;2023-05-09T00:45:39;101115.28;;;19.07
15333;BMP180;7766;51.534;6.722;2023-05-09T00:46:40;101119.91;;;19.01
15333;BMP180;7766;51.534;6.722;2023-05-09T00:47:41;101112.50;;;19.03
15333;BMP180;7766;51.534;6.722;2023-05-09T00:48:42;101108.56;;;19.05
15333;BMP180;7766;51.534;6.722;2023-05-09T00:49:43;101110.78;;;19.08
15333;BMP180;7766;51.534;6.722;2023-05-09T00:50:44;101099.88;;;19.09
15333;BMP180;7766;51.534;6.722;2023-05-09T00:51:46;101103.38;;;19.10
15333;BMP180;7766;51.534;6.722;2023-05-09T00:52:48;101103.75;;;19.13
15333;BMP180;7766;51.534;6.722;2023-05-09T00:53:49;101099.00;;;19.15
15333;BMP180;7766;51.534;6.722;2023-05-09T00:54:54;101099.00;;;19.15
15333;BMP180;7766;51.534;6.722;2023-05-09T00:55:56;101100.94;;;19.08
15333;BMP180;7766;51.534;6.722;2023-05-09T00:56:58;101098.59;;;19.01
15333;BMP180;7766;51.534;6.722;2023-05-09T00:57:59;101093.78;;;18.91
15333;BMP180;7766;51.534;6.722;2023-05-09T00:59:00;101090.81;;;18.71
15333;BMP180;7766;51.534;6.722;2023-05-09T01:00:01;101096.81;;;18.66
15333;BMP180;7766;51.534;6.722;2023-05-09T01:01:04;101091.81;;;18.52
15333;BMP180;7766;51.534;6.722;2023-05-09T01:02:05;101099.53;;;18.43
15333;BMP180;7766;51.534;6.722;2023-05-09T01:03:06;101088.88;;;18.43
15333;BMP180;7766;51.534;6.722;2023-05-09T01:04:08;101091.22;;;18.33
15333;BMP180;7766;51.534;6.722;2023-05-09T01:05:10;101089.53;;;18.38
15333;BMP180;7766;51.534;6.722;2023-05-09T01:07:29;101093.59;;;18.41
15333;BMP180;7766;51.534;6.722;2023-05-09T01:08:51;101093.97;;;18.44
15333;BMP180;7766;51.534;6.722;2023-05-09T01:10:07;101093.69;;;18.34
15333;BMP180;7766;51.534;6.722;2023-05-09T01:11:22;101081.97;;;18.35
15333;BMP180;7766;51.534;6.722;2023-05-09T01:12:36;101088.13;;;18.36
15333;BMP180;7766;51.534;6.722;2023-05-09T01:14:00;101080.22;;;18.29
15333;BMP180;7766;51.534;6.722;2023-05-09T01:15:11;101085.75;;;18.28
15333;BMP180;7766;51.534;6.722;2023-05-09T01:16:25;101082.78;;;18.36
15333;BMP180;7766;51.534;6.722;2023-05-09T01:17:48;101081.63;;;18.32
15333;BMP180;7766;51.534;6.722;2023-05-09T01:18:58;101080.13;;;18.36
15333;BMP180;7766;51.534;6.722;2023-05-09T01:20:12;101077.28;;;18.37
15333;BMP180;7766;51.534;6.722;2023-05-09T01:21:22;101076.47;;;18.37
15333;BMP180;7766;51.534;6.722;2023-05-09T01:22:31;101079.56;;;18.34
15333;BMP180;7766;51.534;6.722;2023-05-09T01:26:01;101077.47;;;18.36
15333;BMP180;7766;51.534;6.722;2023-05-09T01:27:14;101076.75;;;18.46
15333;BMP180;7766;51.534;6.722;2023-05-09T01:29:58;101066.75;;;18.59
15333;BMP180;7766;51.534;6.722;2023-05-09T01:31:03;101063.22;;;18.65
15333;BMP180;7766;51.534;6.722;2023-05-09T01:32:18;101064.09;;;18.59
15333;BMP180;7766;51.534;6.722;2023-05-09T01:33:21;101056.19;;;18.53
15333;BMP180;7766;51.534;6.722;2023-05-09T01:34:26;101059.97;;;18.63
15333;BMP180;7766;51.534;6.722;2023-05-09T01:35:30;101053.53;;;18.71
15333;BMP180;7766;51.534;6.722;2023-05-09T01:36:34;101052.84;;;18.75
15333;BMP180;7766;51.534;6.722;2023-05-09T01:37:40;101052.63;;;18.76
15333;BMP180;7766;51.534;6.722;2023-05-09T01:38:43;101046.63;;;18.81
15333;BMP180;7766;51.534;6.722;2023-05-09T01:39:49;101053.97;;;18.85
15333;BMP180;7766;51.534;6.722;2023-05-09T01:40:54;101048.63;;;18.85
15333;BMP180;7766;51.534;6.722;2023-05-09T01:41:58;101060.69;;;18.88
15333;BMP180;7766;51.534;6.722;2023-05-09T01:43:05;101060.19;;;18.79
15333;BMP180;7766;51.534;6.722;2023-05-09T01:44:10;101050.41;;;18.74
15333;BMP180;7766;51.534;6.722;2023-05-09T01:45:13;101053.09;;;18.74
15333;BMP180;7766;51.534;6.722;2023-05-09T01:46:16;101052.41;;;18.78
15333;BMP180;7766;51.534;6.722;2023-05-09T01:47:19;101051.13;;;18.80
15333;BMP180;7766;51.534;6.722;2023-05-09T01:48:21;101059.28;;;18.85
15333;BMP180;7766;51.534;6.722;2023-05-09T01:49:28;101051.75;;;18.82
15333;BMP180;7766;51.534;6.722;2023-05-09T01:50:31;101056.16;;;18.88
15333;BMP180;7766;51.534;6.722;2023-05-09T01:51:34;101049.78;;;18.89
15333;BMP180;7766;51.534;6.722;2023-05-09T01:52:37;101051.75;;;18.93
15333;BMP180;7766;51.534;6.722;2023-05-09T01:53:40;101053.47;;;18.88
15333;BMP180;7766;51.534;6.722;2023-05-09T01:54:43;101050.38;;;18.91
15333;BMP180;7766;51.534;6.722;2023-05-09T01:55:46;101048.31;;;18.93
15333;BMP180;7766;51.534;6.722;2023-05-09T01:56:48;101046.59;;;18.98
15333;BMP180;7766;51.534;6.722;2023-05-09T01:57:52;101042.06;;;18.99
15333;BMP180;7766;51.534;6.722;2023-05-09T01:58:55;101048.00;;;19.01
15333;BMP180;7766;51.534;6.722;2023-05-09T01:59:57;101046.94;;;19.02
15333;BMP180;7766;51.534;6.722;2023-05-09T02:01:00;101041.28;;;18.98
15333;BMP180;7766;51.534;6.722;2023-05-09T02:02:03;101050.38;;;18.91
15333;BMP180;7766;51.534;6.722;2023-05-09T02:03:04;101052.69;;;18.88
15333;BMP180;7766;51.534;6.722;2023-05-09T02:04:05;101056.63;;;18.85
15333;BMP180;7766;51.534;6.722;2023-05-09T02:05:09;101050.25;;;18.86
15333;BMP180;7766;51.534;6.722;2023-05-09T02:06:11;101048.22;;;18.71
15333;BMP180;7766;51.534;6.722;2023-05-09T02:07:13;101051.00;;;18.58
15333;BMP180;7766;51.534;6.722;2023-05-09T02:08:15;101048.53;;;18.63
15333;BMP180;7766;51.534;6.722;2023-05-09T02:09:18;101048.06;;;18.66
15333;BMP180;7766;51.534;6.722;2023-05-09T02:10:20;101051.31;;;18.68
15333;BMP180;7766;51.534;6.722;2023-05-09T02:11:22;101053.22;;;18.61
15333;BMP180;7766;51.534;6.722;2023-05-09T02:12:23;101044.72;;;18.53
15333;BMP180;7766;51.534;6.722;2023-05-09T02:13:24;101056.78;;;18.55
15333;BMP180;7766;51.534;6.722;2023-05-09T02:14:25;101055.00;;;18.49
15333;BMP180;7766;51.534;6.722;2023-05-09T02:15:26;101060.19;;;18.44
15333;BMP180;7766;51.534;6.722;2023-05-09T02:16:28;101050.38;;;18.45
15333;BMP180;7766;51.534;6.722;2023-05-09T02:17:29;101053.47;;;18.42
15333;BMP180;7766;51.534;6.722;2023-05-09T02:18:31;101053.03;;;18.45
15333;BMP180;7766;51.534;6.722;2023-05-09T02:19:33;101050.94;;;18.47
15333;BMP180;7766;51.534;6.722;2023-05-09T02:20:35;101051.75;;;18.47
15333;BMP180;7766;51.534;6.722;2023-05-09T02:21:36;101043.91;;;18.52
15333;BMP180;7766;51.534;6.722;2023-05-09T02:22:38;101040.56;;;18.57
15333;BMP180;7766;51.534;6.722;2023-05-09T02:23:40;101047.53;;;18.58
15333;BMP180;7766;51.534;6.722;2023-05-09T02:24:42;101043.41;;;18.61
15333;BMP180;7766;51.534;6.722;2023-05-09T02:25:45;101046.22;;;18.66
15333;BMP180;7766;51.534;6.722;2023-05-09T02:26:46;101048.44;;;18.69
15333;BMP180;7766;51.534;6.722;2023-05-09T02:27:47;101041.63;;;18.73
15333;BMP180;7766;51.534;6.722;2023-05-09T02:28:49;101047.31;;;18.76
15333;BMP180;7766;51.534;6.722;2023-05-09T02:29:54;101049.28;;;18.81
15333;BMP180;7766;51.534;6.722;2023-05-09T02:30:58;101047.22;;;18.83
15333;BMP180;7766;51.534;6.722;2023-05-09T02:32:01;101042.50;;;18.85
15333;BMP180;7766;51.534;6.722;2023-05-09T02:33:07;101042.25;;;18.86
15333;BMP180;7766;51.534;6.722;2023-05-09T02:34:10;101043.88;;;18.87
15333;BMP180;7766;51.534;6.722;2023-05-09T02:35:12;101041.81;;;18.89
15333;BMP180;7766;51.534;6.722;2023-05-09T02:36:15;101049.56;;;18.91
15333;BMP180;7766;51.534;6.722;2023-05-09T02:37:17;101045.50;;;18.88
15333;BMP180;7766;51.534;6.722;2023-05-09T02:38:19;101036.53;;;18.72
15333;BMP180;7766;51.534;6.722;2023-05-09T02:39:21;101036.88;;;18.75
15333;BMP180;7766;51.534;6.722;2023-05-09T02:40:23;101039.91;;;18.78
15333;BMP180;7766;51.534;6.722;2023-05-09T02:41:25;101040.72;;;18.79
15333;BMP180;7766;51.534;6.722;2023-05-09T02:42:29;101042.34;;;18.80
15333;BMP180;7766;51.534;6.722;2023-05-09T02:43:30;101034.13;;;18.81
15333;BMP180;7766;51.534;6.722;2023-05-09T02:44:32;101041.09;;;18.82
15333;BMP180;7766;51.534;6.722;2023-05-09T02:45:33;101037.16;;;18.85
15333;BMP180;7766;51.534;6.722;2023-05-09T02:46:34;101037.38;;;18.83
15333;BMP180;7766;51.534;6.722;2023-05-09T02:47:35;101041.53;;;18.79
15333;BMP180;7766;51.534;6.722;2023-05-09T02:48:36;101043.38;;;18.79
15333;BMP180;7766;51.534;6.722;2023-05-09T02:49:37;101042.94;;;18.82
15333;BMP180;7766;51.534;6.722;2023-05-09T02:50:39;101048.22;;;18.71
15333;BMP180;7766;51.534;6.722;2023-05-09T02:51:42;101049.09;;;18.30
15333;BMP180;7766;51.534;6.722;2023-05-09T02:52:44;101045.78;;;18.34
15333;BMP180;7766;51.534;6.722;2023-05-09T02:53:45;101047.50;;;18.29
15333;BMP180;7766;51.534;6.722;2023-05-09T02:54:46;101046.66;;;18.28
15333;BMP180;7766;51.534;6.722;2023-05-09T02:55:48;101043.72;;;18.36
15333;BMP180;7766;51.534;6.722;2023-05-09T02:56:49;101044.97;;;18.34
15333;BMP180;7766;51.534;6.722;2023-05-09T02:57:50;101047.56;;;18.40
15333;BMP180;7766;51.534;6.722;2023-05-09T02:58:51;101034.59;;;18.43
15333;BMP180;7766;51.534;6.722;2023-05-09T02:59:52;101033.13;;;18.47
15333;BMP180;7766;51.534;6.722;2023-05-09T03:00:53;101033.66;;;18.38
15333;BMP180;7766;51.534;6.722;2023-05-09T03:01:54;101034.19;;;18.29
15333;BMP180;7766;51.534;6.722;2023-05-09T03:02:55;101029.81;;;18.34
15333;BMP180;7766;51.534;6.722;2023-05-09T03:03:56;101036.31;;;18.38
15333;BMP180;7766;51.534;6.722;2023-05-09T03:04:57;101028.13;;;18.40
15333;BMP180;7766;51.534;6.722;2023-05-09T03:05:58;101031.75;;;18.45
15333;BMP180;7766;51.534;6.722;2023-05-09T03:06:59;101033.88;;;18.37
15333;BMP180;7766;51.534;6.722;2023-05-09T03:08:00;101022.41;;;18.36
15333;BMP180;7766;51.534;6.722;2023-05-09T03:09:01;101029.31;;;18.26
15333;BMP180;7766;51.534;6.722;2023-05-09T03:10:02;101031.22;;;18.19
15333;BMP180;7766;51.534;6.722;2023-05-09T03:11:03;101028.41;;;18.14
15333;BMP180;7766;51.534;6.722;2023-05-09T03:12:05;101033.72;;;18.14
15333;BMP180;7766;51.534;6.722;2023-05-09T03:13:07;101025.91;;;18.19
15333;BMP180;7766;51.534;6.722;2023-05-09T03:14:08;101025.97;;;18.13
15333;BMP180;7766;51.534;6.722;2023-05-09T03:15:10;101026.81;;;18.13
15333;BMP180;7766;51.534;6.722;2023-05-09T03:16:12;101017.34;;;18.17
15333;BMP180;7766;51.534;6.722;2023-05-09T03:17:14;101020.22;;;18.16
15333;BMP180;7766;51.534;6.722;2023-05-09T03:18:21;101020.38;;;18.21
15333;BMP180;7766;51.534;6.722;2023-05-09T03:19:21;101031.16;;;18.26
15333;BMP180;7766;51.534;6.722;2023-05-09T03:20:23;101029.06;;;18.27
15333;BMP180;7766;51.534;6.722;2023-05-09T03:21:24;101018.00;;;18.30
15333;BMP180;7766;51.534;6.722;2023-05-09T03:22:25;101017.09;;;18.36
15333;BMP180;7766;51.534;6.722;2023-05-09T03:23:25;101020.94;;;18.40
15333;BMP180;7766;51.534;6.722;2023-05-09T03:24:26;101023.75;;;18.45
15333;BMP180;7766;51.534;6.722;2023-05-09T03:25:30;101021.44;;;18.48
15333;BMP180;7766;51.534;6.722;2023-05-09T03:26:32;101027.94;;;18.52
15333;BMP180;7766;51.534;6.722;2023-05-09T03:27:35;101020.09;;;18.57
15333;BMP180;7766;51.534;6.722;2023-05-09T03:28:36;101021.75;;;18.58
15333;BMP180;7766;51.534;6.722;2023-05-09T03:29:38;101027.06;;;18.58
15333;BMP180;7766;51.534;6.722;2023-05-09T03:30:39;101025.78;;;18.60
15333;BMP180;7766;51.534;6.722;2023-05-09T03:31:40;101023.94;;;18.61
15333;BMP180;7766;51.534;6.722;2023-05-09T03:32:41;101024.56;;;18.63
15333;BMP180;7766;51.534;6.722;2023-05-09T03:33:42;101028.63;;;18.65
15333;BMP180;7766;51.534;6.722;2023-05-09T03:34:43;101027.81;;;18.65
15333;BMP180;7766;51.534;6.722;2023-05-09T03:35:44;101027.88;;;18.59
15333;BMP180;7766;51.534;6.722;2023-05-09T03:36:45;101029.41;;;18.48
15333;BMP180;7766;51.534;6.722;2023-05-09T03:37:46;101025.06;;;18.54
15333;BMP180;7766;51.534;6.722;2023-05-09T03:38:47;101030.75;;;18.57
15333;BMP180;7766;51.534;6.722;2023-05-09T03:39:48;101025.47;;;18.40
15333;BMP180;7766;51.534;6.722;2023-05-09T03:40:49;101032.47;;;18.34
15333;BMP180;7766;51.534;6.722;2023-05-09T03:41:51;101032.25;;;18.36
15333;BMP180;7766;51.534;6.722;2023-05-09T03:42:52;101031.97;;;18.26
15333;BMP180;7766;51.534;6.722;2023-05-09T03:43:53;101027.81;;;18.30
15333;BMP180;7766;51.534;6.722;2023-05-09T03:44:54;101031.44;;;18.35
15333;BMP180;7766;51.534;6.722;2023-05-09T03:45:55;101019.31;;;18.39
15333;BMP180;7766;51.534;6.722;2023-05-09T03:46:56;101021.97;;;18.39
15333;BMP180;7766;51.534;6.722;2023-05-09T03:47:57;101021.75;;;18.41
15333;BMP180;7766;51.534;6.722;2023-05-09T03:48:58;101018.81;;;18.31
15333;BMP180;7766;51.534;6.722;2023-05-09T03:49:59;101013.34;;;18.26
15333;BMP180;7766;51.534;6.722;2023-05-09T03:51:00;101016.59;;;18.11
15333;BMP180;7766;51.534;6.722;2023-05-09T03:52:03;101015.63;;;18.23
15333;BMP180;7766;51.534;6.722;2023-05-09T03:53:04;101013.94;;;18.28
15333;BMP180;7766;51.534;6.722;2023-05-09T03:54:04;101018.59;;;18.32
15333;BMP180;7766;51.534;6.722;2023-05-09T03:55:06;101005.63;;;18.36
15333;BMP180;7766;51.534;6.722;2023-05-09T03:56:07;101007.03;;;18.38
15333;BMP180;7766;51.534;6.722;2023-05-09T03:57:08;101005.44;;;18.37
15333;BMP180;7766;51.534;6.722;2023-05-09T03:58:10;101004.75;;;18.42
15333;BMP180;7766;51.534;6.722;2023-05-09T03:59:11;100995.75;;;18.43
15333;BMP180;7766;51.534;6.722;2023-05-09T04:00:13;100996.09;;;18.46
15333;BMP180;7766;51.534;6.722;2023-05-09T04:01:14;100996.91;;;18.46
15333;BMP180;7766;51.534;6.722;2023-05-09T04:02:15;100998.09;;;18.50
15333;BMP180;7766;51.534;6.722;2023-05-09T04:03:16;100993.34;;;18.52
15333;BMP180;7766;51.534;6.722;2023-05-09T04:04:17;100992.78;;;18.50
15333;BMP180;7766;51.534;6.722;2023-05-09T04:05:18;100986.19;;;18.53
15333;BMP180;7766;51.534;6.722;2023-05-09T04:06:19;100983.28;;;18.54
15333;BMP180;7766;51.534;6.722;2023-05-09T04:07:20;100986.56;;;18.56
15333;BMP180;7766;51.534;6.722;2023-05-09T04:08:22;100982.72;;;18.52
15333;BMP180;7766;51.534;6.722;2023-05-09T04:09:24;100995.56;;;18.55
15333;BMP180;7766;51.534;6.722;2023-05-09T04:10:25;100992.91;;;18.55
15333;BMP180;7766;51.534;6.722;2023-05-09T04:11:26;100997.19;;;18.56
15333;BMP180;7766;51.534;6.722;2023-05-09T04:12:27;101002.53;;;18.56
15333;BMP180;7766;51.534;6.722;2023-05-09T04:13:28;100996.16;;;18.57
15333;BMP180;7766;51.534;6.722;2023-05-09T04:14:30;100999.38;;;18.59
15333;BMP180;7766;51.534;6.722;2023-05-09T04:15:31;100995.13;;;18.58
15333;BMP180;7766;51.534;6.722;2023-05-09T04:16:32;100995.69;;;18.60
15333;BMP180;7766;51.534;6.722;2023-05-09T04:17:33;100990.63;;;18.59
15333;BMP180;7766;51.534;6.722;2023-05-09T04:18:34;100988.75;;;18.59
15333;BMP180;7766;51.534;6.722;2023-05-09T04:19:39;100987.13;;;18.58
15333;BMP180;7766;51.534;6.722;2023-05-09T04:20:40;100984.84;;;18.61
15333;BMP180;7766;51.534;6.722;2023-05-09T04:21:41;100987.28;;;18.63
15333;BMP180;7766;51.534;6.722;2023-05-09T04:22:42;100982.78;;;18.63
15333;BMP180;7766;51.534;6.722;2023-05-09T04:23:43;100988.94;;;18.64
15333;BMP180;7766;51.534;6.722;2023-05-09T04:24:44;100992.19;;;18.66
15333;BMP180;7766;51.534;6.722;2023-05-09T04:25:45;100984.75;;;18.68
15333;BMP180;7766;51.534;6.722;2023-05-09T04:26:46;100982.91;;;18.68
15333;BMP180;7766;51.534;6.722;2023-05-09T04:27:47;100980.25;;;18.68
15333;BMP180;7766;51.534;6.722;2023-05-09T04:28:48;100979.44;;;18.68
15333;BMP180;7766;51.534;6.722;2023-05-09T04:29:49;100979.44;;;18.68
15333;BMP180;7766;51.534;6.722;2023-05-09T04:30:50;100978.41;;;18.69
15333;BMP180;7766;51.534;6.722;2023-05-09T04:31:51;100972.03;;;18.70
15333;BMP180;7766;51.534;6.722;2023-05-09T04:32:53;100972.03;;;18.70
15333;BMP180;7766;51.534;6.722;2023-05-09T04:33:55;100975.06;;;18.73
15333;BMP180;7766;51.534;6.722;2023-05-09T04:34:58;100974.03;;;18.74
15333;BMP180;7766;51.534;6.722;2023-05-09T04:35:59;100971.13;;;18.75
15333;BMP180;7766;51.534;6.722;2023-05-09T04:37:00;100971.13;;;18.75
15333;BMP180;7766;51.534;6.722;2023-05-09T04:38:01;100973.59;;;18.77
15333;BMP180;7766;51.534;6.722;2023-05-09T04:39:02;100976.81;;;18.79
15333;BMP180;7766;51.534;6.722;2023-05-09T04:40:05;100967.81;;;18.80
15333;BMP180;7766;51.534;6.722;2023-05-09T04:41:07;100967.81;;;18.80
15333;BMP180;7766;51.534;6.722;2023-05-09T04:42:08;100968.59;;;18.80
15333;BMP180;7766;51.534;6.722;2023-05-09T04:43:09;100973.91;;;18.80
15333;BMP180;7766;51.534;6.722;2023-05-09T04:44:11;100968.59;;;18.80
15333;BMP180;7766;51.534;6.722;2023-05-09T04:45:12;100966.75;;;18.81
15333;BMP180;7766;51.534;6.722;2023-05-09T04:46:13;100968.38;;;18.82
15333;BMP180;7766;51.534;6.722;2023-05-09T04:47:14;100969.19;;;18.82
15333;BMP180;7766;51.534;6.722;2023-05-09T04:48:15;100974.53;;;18.82
15333;BMP180;7766;51.534;6.722;2023-05-09T04:49:16;100974.06;;;18.85
15333;BMP180;7766;51.534;6.722;2023-05-09T04:50:16;100972.66;;;18.83
15333;BMP180;7766;51.534;6.722;2023-05-09T04:51:17;100964.66;;;18.83
15333;BMP180;7766;51.534;6.722;2023-05-09T04:52:18;100973.47;;;18.83
15333;BMP180;7766;51.534;6.722;2023-05-09T04:53:19;100974.06;;;18.85
15333;BMP180;7766;51.534;6.722;2023-05-09T04:54:20;100967.13;;;18.84
15333;BMP180;7766;51.534;6.722;2023-05-09T04:55:21;100969.53;;;18.86
15333;BMP180;7766;51.534;6.722;2023-05-09T04:56:23;100972.81;;;18.88
15333;BMP180;7766;51.534;6.722;2023-05-09T04:57:24;100972.00;;;18.87
15333;BMP180;7766;51.534;6.722;2023-05-09T04:58:25;100969.09;;;18.89
15333;BMP180;7766;51.534;6.722;2023-05-09T04:59:26;100970.94;;;18.88
15333;BMP180;7766;51.534;6.722;2023-05-09T05:00:27;100970.16;;;18.88
15333;BMP180;7766;51.534;6.722;2023-05-09T05:01:28;100972.00;;;18.87
15333;BMP180;7766;51.534;6.722;2023-05-09T05:02:30;100968.75;;;18.85
15333;BMP180;7766;51.534;6.722;2023-05-09T05:03:31;100956.91;;;18.81
15333;BMP180;7766;51.534;6.722;2023-05-09T05:04:32;100968.16;;;18.83
15333;BMP180;7766;51.534;6.722;2023-05-09T05:05:33;100960.41;;;18.82
15333;BMP180;7766;51.534;6.722;2023-05-09T05:06:34;100965.28;;;18.85
15333;BMP180;7766;51.534;6.722;2023-05-09T05:07:35;100961.56;;;18.86
15333;BMP180;7766;51.534;6.722;2023-05-09T05:08:36;100962.38;;;18.86
15333;BMP180;7766;51.534;6.722;2023-05-09T05:09:37;100964.00;;;18.87
15333;BMP180;7766;51.534;6.722;2023-05-09T05:10:38;100957.63;;;18.88
15333;BMP180;7766;51.534;6.722;2023-05-09T05:11:39;100961.09;;;18.89
15333;BMP180;7766;51.534;6.722;2023-05-09T05:12:40;100961.91;;;18.89
15333;BMP180;7766;51.534;6.722;2023-05-09T05:13:41;100956.59;;;18.89
15333;BMP180;7766;51.534;6.722;2023-05-09T05:14:42;100954.50;;;18.91
15333;BMP180;7766;51.534;6.722;2023-05-09T05:15:43;100959.81;;;18.91
15333;BMP180;7766;51.534;6.722;2023-05-09T05:16:44;100947.13;;;18.93
15333;BMP180;7766;51.534;6.722;2023-05-09T05:17:45;100948.72;;;18.94
15333;BMP180;7766;51.534;6.722;2023-05-09T05:18:46;100946.63;;;18.96
15333;BMP180;7766;51.534;6.722;2023-05-09T05:19:46;100948.25;;;18.97
15333;BMP180;7766;51.534;6.722;2023-05-09T05:20:47;100946.19;;;18.99
15333;BMP180;7766;51.534;6.722;2023-05-09T05:21:48;100950.22;;;19.01
15333;BMP180;7766;51.534;6.722;2023-05-09T05:22:49;100938.78;;;19.01
15333;BMP180;7766;51.534;6.722;2023-05-09T05:23:50;100937.72;;;19.02
15333;BMP180;7766;51.534;6.722;2023-05-09T05:24:51;100945.72;;;19.02
15333;BMP180;7766;51.534;6.722;2023-05-09T05:25:52;100945.72;;;19.02
15333;BMP180;7766;51.534;6.722;2023-05-09T05:26:53;100942.03;;;19.03
15333;BMP180;7766;51.534;6.722;2023-05-09T05:27:54;100935.06;;;19.02
15333;BMP180;7766;51.534;6.722;2023-05-09T05:28:55;100940.19;;;19.03
15333;BMP180;7766;51.534;6.722;2023-05-09T05:29:57;100949.78;;;19.04
15333;BMP180;7766;51.534;6.722;2023-05-09T05:30:58;100941.44;;;18.90
15333;BMP180;7766;51.534;6.722;2023-05-09T05:31:59;100943.28;;;18.89
15333;BMP180;7766;51.534;6.722;2023-05-09T05:33:00;100936.47;;;18.93
15333;BMP180;7766;51.534;6.722;2023-05-09T05:34:01;100932.75;;;18.94
15333;BMP180;7766;51.534;6.722;2023-05-09T05:35:02;100931.13;;;18.93
15333;BMP180;7766;51.534;6.722;2023-05-09T05:36:04;100924.75;;;18.94
15333;BMP180;7766;51.534;6.722;2023-05-09T05:37:05;100938.06;;;18.94
15333;BMP180;7766;51.534;6.722;2023-05-09T05:38:06;100932.28;;;18.97
15333;BMP180;7766;51.534;6.722;2023-05-09T05:39:07;100928.81;;;18.96
15333;BMP180;7766;51.534;6.722;2023-05-09T05:40:09;100918.41;;;18.95
15333;BMP180;7766;51.534;6.722;2023-05-09T05:41:10;100921.06;;;18.95
15333;BMP180;7766;51.534;6.722;2023-05-09T05:42:11;100926.16;;;18.96
15333;BMP180;7766;51.534;6.722;2023-05-09T05:43:12;100924.31;;;18.97
15333;BMP180;7766;51.534;6.722;2023-05-09T05:44:13;100923.28;;;18.98
15333;BMP180;7766;51.534;6.722;2023-05-09T05:45:14;100921.19;;;19.00
15333;BMP180;7766;51.534;6.722;2023-05-09T05:46:15;100922.81;;;19.01
15333;BMP180;7766;51.534;6.722;2023-05-09T05:47:16;100920.16;;;19.01
15333;BMP180;7766;51.534;6.722;2023-05-09T05:48:17;100927.31;;;19.00
15333;BMP180;7766;51.534;6.722;2023-05-09T05:49:18;100925.69;;;18.99
15333;BMP180;7766;51.534;6.722;2023-05-09T05:50:19;100922.81;;;19.01
15333;BMP180;7766;51.534;6.722;2023-05-09T05:51:20;100915.41;;;19.03
15333;BMP180;7766;51.534;6.722;2023-05-09T05:52:21;100918.06;;;19.03
15333;BMP180;7766;51.534;6.722;2023-05-09T05:53:22;100921.53;;;19.03
15333;BMP180;7766;51.534;6.722;2023-05-09T05:54:23;100918.63;;;19.05
15333;BMP180;7766;51.534;6.722;2023-05-09T05:55:24;100917.34;;;19.07
15333;BMP180;7766;51.534;6.722;2023-05-09T05:56:25;100909.16;;;19.08
15333;BMP180;7766;51.534;6.722;2023-05-09T05:57:26;100910.31;;;19.12
15333;BMP180;7766;51.534;6.722;2023-05-09T05:58:27;100920.28;;;19.06
15333;BMP180;7766;51.534;6.722;2023-05-09T05:59:28;100911.00;;;19.08
15333;BMP180;7766;51.534;6.722;2023-05-09T06:00:29;100918.19;;;19.07
15333;BMP180;7766;51.534;6.722;2023-05-09T06:01:30;100910.16;;;18.96
15333;BMP180;7766;51.534;6.722;2023-05-09T06:02:31;100923.16;;;19.04
15333;BMP180;7766;51.534;6.722;2023-05-09T06:03:32;100904.50;;;19.04